createdAt,value
2022-09-18T00:00:24.776Z,87
2022-09-18T00:00:55.010Z,87
2022-09-18T00:01:25.255Z,87
2022-09-18T00:01:56.069Z,87
2022-09-18T00:02:31.013Z,87
2022-09-18T00:02:53.574Z,87
2022-09-18T00:03:16.193Z,87
2022-09-18T00:03:51.041Z,87
2022-09-18T00:04:25.993Z,87
2022-09-18T00:04:50.002Z,88
2022-09-18T00:05:24.575Z,88
2022-09-18T00:05:56.003Z,88
2022-09-18T00:06:30.629Z,88
2022-09-18T00:06:53.775Z,88
2022-09-18T00:07:15.998Z,87
2022-09-18T00:07:51.102Z,87
2022-09-18T00:08:22.815Z,88
2022-09-18T00:08:55.328Z,87
2022-09-18T00:09:24.227Z,88
2022-09-18T00:09:56.018Z,88
2022-09-18T00:10:30.791Z,88
2022-09-18T00:10:53.824Z,88
2022-09-18T00:11:16.069Z,88
2022-09-18T00:11:50.992Z,88
2022-09-18T00:12:22.689Z,88
2022-09-18T00:12:54.695Z,88
2022-09-18T00:13:26.719Z,88
2022-09-18T00:13:55.991Z,88
2022-09-18T00:14:30.780Z,88
2022-09-18T00:14:53.444Z,88
2022-09-18T00:15:16.028Z,88
2022-09-18T00:15:51.648Z,88
2022-09-18T00:16:22.784Z,88
2022-09-18T00:16:54.625Z,88
2022-09-18T00:17:24.457Z,88
2022-09-18T00:17:56.390Z,88
2022-09-18T00:18:30.712Z,88
2022-09-18T00:18:53.558Z,88
2022-09-18T00:19:15.863Z,88
2022-09-18T00:19:52.259Z,88
2022-09-18T00:20:22.883Z,88
2022-09-18T00:20:54.848Z,88
2022-09-18T00:21:24.301Z,88
2022-09-18T00:21:56.044Z,88
2022-09-18T00:22:30.921Z,88
2022-09-18T00:22:53.688Z,88
2022-09-18T00:23:16.082Z,88
2022-09-18T00:23:58.532Z,88
2022-09-18T00:24:22.722Z,88
2022-09-18T00:24:54.727Z,88
2022-09-18T00:25:24.387Z,88
2022-09-18T00:25:55.909Z,88
2022-09-18T00:26:30.630Z,88
2022-09-18T00:26:53.374Z,88
2022-09-18T00:27:15.606Z,88
2022-09-18T00:27:53.105Z,88
2022-09-18T00:28:22.733Z,88
2022-09-18T00:29:26.730Z,88
2022-09-18T00:30:04.386Z,88
2022-09-18T00:30:27.645Z,88
2022-09-18T00:30:50.015Z,89
2022-09-18T00:31:12.665Z,89
2022-09-18T00:31:53.717Z,89
2022-09-18T00:32:22.829Z,89
2022-09-18T00:32:55.305Z,89
2022-09-18T00:33:26.771Z,89
2022-09-18T00:33:59.232Z,89
2022-09-18T00:34:33.080Z,89
2022-09-18T00:34:55.344Z,89
2022-09-18T00:35:17.695Z,89
2022-09-18T00:35:51.029Z,89
2022-09-18T00:36:22.796Z,89
2022-09-18T00:36:54.726Z,89
2022-09-18T00:37:24.519Z,89
2022-09-18T00:37:57.473Z,89
2022-09-18T00:38:31.628Z,89
2022-09-18T00:38:54.788Z,89
2022-09-18T00:39:16.513Z,89
2022-09-18T00:39:51.298Z,89
2022-09-18T00:40:23.009Z,89
2022-09-18T00:40:55.819Z,89
2022-09-18T00:41:27.040Z,89
2022-09-18T00:41:49.668Z,89
2022-09-18T00:42:12.258Z,89
2022-09-18T00:42:46.784Z,89
2022-09-18T00:43:19.054Z,89
2022-09-18T00:43:50.832Z,89
2022-09-18T00:44:22.901Z,89
2022-09-18T00:44:55.716Z,89
2022-09-18T00:45:24.644Z,89
2022-09-18T00:46:00.844Z,89
2022-09-18T00:46:31.563Z,89
2022-09-18T00:46:56.119Z,89
2022-09-18T00:47:16.787Z,90
2022-09-18T00:47:51.142Z,90
2022-09-18T00:48:23.595Z,90
2022-09-18T00:48:56.112Z,90
2022-09-18T00:49:24.275Z,90
2022-09-18T00:49:56.744Z,90
2022-09-18T00:50:30.738Z,90
2022-09-18T00:50:53.627Z,90
2022-09-18T00:51:15.788Z,90
2022-09-18T00:51:50.682Z,90
2022-09-18T00:52:23.138Z,90
2022-09-18T00:52:56.693Z,90
2022-09-18T00:53:25.219Z,90
2022-09-18T00:53:57.021Z,90
2022-09-18T00:54:31.682Z,90
2022-09-18T00:54:53.717Z,90
2022-09-18T00:55:16.178Z,90
2022-09-18T00:55:50.742Z,90
2022-09-18T00:56:22.661Z,90
2022-09-18T00:56:56.979Z,90
2022-09-18T00:57:24.235Z,90
2022-09-18T00:57:59.333Z,90
2022-09-18T00:58:31.412Z,90
2022-09-18T00:58:54.611Z,90
2022-09-18T00:59:16.702Z,90
2022-09-18T00:59:50.860Z,90
2022-09-18T01:00:24.855Z,90
2022-09-18T01:00:57.446Z,90
2022-09-18T01:01:25.435Z,90
2022-09-18T01:02:01.835Z,90
2022-09-18T01:02:31.829Z,90
2022-09-18T01:02:54.793Z,90
2022-09-18T01:03:17.362Z,91
2022-09-18T01:03:51.371Z,91
2022-09-18T01:04:26.224Z,91
2022-09-18T01:04:50.213Z,91
2022-09-18T01:05:24.429Z,91
2022-09-18T01:05:58.729Z,91
2022-09-18T01:06:30.980Z,91
2022-09-18T01:06:53.437Z,91
2022-09-18T01:07:15.905Z,91
2022-09-18T01:07:50.792Z,91
2022-09-18T01:08:22.938Z,91
2022-09-18T01:08:54.738Z,91
2022-09-18T01:09:28.570Z,91
2022-09-18T01:09:58.882Z,91
2022-09-18T01:10:31.160Z,91
2022-09-18T01:10:54.303Z,91
2022-09-18T01:11:16.500Z,91
2022-09-18T01:11:50.862Z,91
2022-09-18T01:12:22.624Z,91
2022-09-18T01:12:54.756Z,91
2022-09-18T01:13:26.576Z,91
2022-09-18T01:13:59.387Z,91
2022-09-18T01:14:30.642Z,91
2022-09-18T01:14:53.494Z,91
2022-09-18T01:15:15.983Z,91
2022-09-18T01:15:50.863Z,91
2022-09-18T01:16:22.655Z,91
2022-09-18T01:16:54.575Z,91
2022-09-18T01:17:24.252Z,91
2022-09-18T01:17:59.998Z,91
2022-09-18T01:18:30.772Z,91
2022-09-18T01:18:54.302Z,91
2022-09-18T01:19:16.719Z,91
2022-09-18T01:19:50.891Z,91
2022-09-18T01:20:22.793Z,91
2022-09-18T01:20:54.699Z,91
2022-09-18T01:21:24.363Z,91
2022-09-18T01:22:00.562Z,91
2022-09-18T01:22:30.951Z,91
2022-09-18T01:22:53.475Z,91
2022-09-18T01:23:16.019Z,91
2022-09-18T01:23:50.706Z,91
2022-09-18T01:24:22.851Z,91
2022-09-18T01:24:54.618Z,91
2022-09-18T01:25:24.460Z,91
2022-09-18T01:26:01.308Z,91
2022-09-18T01:26:30.721Z,91
2022-09-18T01:26:53.504Z,91
2022-09-18T01:27:15.979Z,91
2022-09-18T01:27:50.580Z,91
2022-09-18T01:28:22.756Z,91
2022-09-18T01:28:54.780Z,91
2022-09-18T01:29:24.471Z,91
2022-09-18T01:29:58.697Z,91
2022-09-18T01:30:30.553Z,91
2022-09-18T01:30:53.562Z,91
2022-09-18T01:31:15.764Z,91
2022-09-18T01:31:50.679Z,91
2022-09-18T01:32:22.678Z,91
2022-09-18T01:32:54.645Z,91
2022-09-18T01:33:24.453Z,91
2022-09-18T01:33:58.757Z,91
2022-09-18T01:34:30.835Z,91
2022-09-18T01:34:54.657Z,91
2022-09-18T01:35:37.178Z,91
2022-09-18T01:35:50.661Z,91
2022-09-18T01:36:22.699Z,91
2022-09-18T01:36:54.545Z,91
2022-09-18T01:37:24.268Z,91
2022-09-18T01:37:58.636Z,91
2022-09-18T01:38:30.685Z,91
2022-09-18T01:38:53.783Z,91
2022-09-18T01:39:16.296Z,91
2022-09-18T01:39:50.824Z,91
2022-09-18T01:40:22.751Z,91
2022-09-18T01:40:54.646Z,91
2022-09-18T01:41:24.376Z,91
2022-09-18T01:41:56.084Z,91
2022-09-18T01:42:30.581Z,91
2022-09-18T01:42:53.529Z,91
2022-09-18T01:43:15.838Z,91
2022-09-18T01:43:50.761Z,91
2022-09-18T01:44:22.582Z,91
2022-09-18T01:44:54.642Z,91
2022-09-18T01:45:24.373Z,91
2022-09-18T01:45:58.697Z,91
2022-09-18T01:46:30.776Z,91
2022-09-18T01:46:53.987Z,91
2022-09-18T01:47:16.299Z,91
2022-09-18T01:47:50.707Z,91
2022-09-18T01:48:22.783Z,91
2022-09-18T01:48:54.674Z,91
2022-09-18T01:49:24.459Z,91
2022-09-18T01:49:58.712Z,91
2022-09-18T01:50:30.523Z,91
2022-09-18T01:50:53.652Z,91
2022-09-18T01:51:15.914Z,91
2022-09-18T01:51:50.744Z,91
2022-09-18T01:52:22.579Z,91
2022-09-18T01:52:54.537Z,91
2022-09-18T01:53:24.238Z,91
2022-09-18T01:53:58.837Z,91
2022-09-18T01:54:30.760Z,91
2022-09-18T01:54:53.318Z,91
2022-09-18T01:55:15.653Z,91
2022-09-18T01:55:50.631Z,91
2022-09-18T01:56:22.716Z,91
2022-09-18T01:56:54.558Z,91
2022-09-18T01:57:24.525Z,91
2022-09-18T01:57:58.647Z,91
2022-09-18T01:58:30.702Z,91
2022-09-18T01:58:53.448Z,91
2022-09-18T01:59:16.035Z,91
2022-09-18T01:59:50.691Z,91
2022-09-18T02:00:22.715Z,91
2022-09-18T02:00:54.899Z,91
2022-09-18T02:01:26.829Z,91
2022-09-18T02:01:58.963Z,91
2022-09-18T02:02:30.672Z,91
2022-09-18T02:02:53.462Z,91
2022-09-18T02:03:15.814Z,91
2022-09-18T02:03:50.949Z,91
2022-09-18T02:04:28.224Z,91
2022-09-18T02:04:54.760Z,91
2022-09-18T02:05:24.262Z,91
2022-09-18T02:05:59.053Z,91
2022-09-18T02:06:30.706Z,91
2022-09-18T02:06:53.673Z,91
2022-09-18T02:07:15.858Z,91
2022-09-18T02:07:50.700Z,91
2022-09-18T02:08:22.649Z,91
2022-09-18T02:08:54.529Z,91
2022-09-18T02:09:26.711Z,91
2022-09-18T02:09:58.550Z,91
2022-09-18T02:10:30.670Z,91
2022-09-18T02:10:53.339Z,91
2022-09-18T02:11:16.168Z,91
2022-09-18T02:11:50.592Z,91
2022-09-18T02:12:22.760Z,91
2022-09-18T02:12:54.850Z,91
2022-09-18T02:13:24.471Z,91
2022-09-18T02:13:58.628Z,91
2022-09-18T02:14:31.078Z,91
2022-09-18T02:14:54.512Z,91
2022-09-18T02:15:17.036Z,91
2022-09-18T02:15:50.725Z,91
2022-09-18T02:16:22.567Z,91
2022-09-18T02:16:54.653Z,91
2022-09-18T02:17:24.447Z,91
2022-09-18T02:17:58.648Z,91
2022-09-18T02:18:30.557Z,91
2022-09-18T02:18:53.377Z,91
2022-09-18T02:19:15.672Z,91
2022-09-18T02:19:50.823Z,91
2022-09-18T02:20:22.876Z,91
2022-09-18T02:20:54.581Z,91
2022-09-18T02:21:24.302Z,91
2022-09-18T02:21:58.605Z,91
2022-09-18T02:22:30.570Z,91
2022-09-18T02:22:53.865Z,91
2022-09-18T02:23:17.737Z,91
2022-09-18T02:23:50.702Z,91
2022-09-18T02:24:23.071Z,91
2022-09-18T02:24:54.716Z,91
2022-09-18T02:25:24.397Z,91
2022-09-18T02:25:58.596Z,91
2022-09-18T02:26:30.631Z,92
2022-09-18T02:26:53.426Z,91
2022-09-18T02:27:15.791Z,92
2022-09-18T02:27:50.691Z,92
2022-09-18T02:28:22.834Z,92
2022-09-18T02:28:54.670Z,92
2022-09-18T02:29:24.309Z,92
2022-09-18T02:29:58.538Z,92
2022-09-18T02:30:30.684Z,92
2022-09-18T02:30:53.621Z,92
2022-09-18T02:31:15.900Z,92
2022-09-18T02:31:50.701Z,92
2022-09-18T02:32:22.572Z,92
2022-09-18T02:32:54.843Z,92
2022-09-18T02:33:24.342Z,92
2022-09-18T02:33:58.775Z,92
2022-09-18T02:34:30.629Z,92
2022-09-18T02:34:57.627Z,92
2022-09-18T02:35:29.405Z,92
2022-09-18T02:36:07.434Z,92
2022-09-18T02:36:38.591Z,92
2022-09-18T02:37:01.427Z,92
2022-09-18T02:37:23.718Z,92
2022-09-18T02:38:01.055Z,92
2022-09-18T02:38:30.790Z,92
2022-09-18T02:38:53.315Z,92
2022-09-18T02:39:15.951Z,92
2022-09-18T02:39:50.757Z,92
2022-09-18T02:40:22.979Z,92
2022-09-18T02:40:54.748Z,92
2022-09-18T02:41:24.484Z,92
2022-09-18T02:41:58.666Z,92
2022-09-18T02:42:30.660Z,92
2022-09-18T02:42:53.426Z,92
2022-09-18T02:43:15.939Z,92
2022-09-18T02:43:51.531Z,92
2022-09-18T02:44:22.598Z,92
2022-09-18T02:44:55.181Z,91
2022-09-18T02:45:24.633Z,91
2022-09-18T02:45:58.949Z,91
2022-09-18T02:46:30.612Z,91
2022-09-18T02:46:53.504Z,91
2022-09-18T02:47:16.535Z,91
2022-09-18T02:47:50.842Z,91
2022-09-18T02:48:23.206Z,91
2022-09-18T02:48:54.817Z,91
2022-09-18T02:49:25.000Z,91
2022-09-18T02:49:58.615Z,91
2022-09-18T02:50:30.769Z,91
2022-09-18T02:50:53.417Z,91
2022-09-18T02:51:16.165Z,91
2022-09-18T02:51:51.404Z,91
2022-09-18T02:52:23.587Z,91
2022-09-18T02:52:55.282Z,91
2022-09-18T02:53:26.842Z,91
2022-09-18T02:53:58.913Z,91
2022-09-18T02:54:30.926Z,91
2022-09-18T02:54:53.573Z,91
2022-09-18T02:55:16.237Z,91
2022-09-18T02:55:50.656Z,91
2022-09-18T02:56:22.663Z,91
2022-09-18T02:56:54.588Z,91
2022-09-18T02:57:24.369Z,91
2022-09-18T02:57:58.678Z,91
2022-09-18T02:58:31.197Z,91
2022-09-18T02:58:55.477Z,91
2022-09-18T02:59:16.408Z,91
2022-09-18T02:59:51.513Z,91
2022-09-18T03:00:22.856Z,91
2022-09-18T03:00:55.787Z,91
2022-09-18T03:01:26.636Z,91
2022-09-18T03:02:01.401Z,91
2022-09-18T03:02:30.836Z,91
2022-09-18T03:02:53.384Z,91
2022-09-18T03:03:16.026Z,91
2022-09-18T03:03:51.229Z,91
2022-09-18T03:04:28.181Z,91
2022-09-18T03:04:56.692Z,91
2022-09-18T03:05:26.805Z,91
2022-09-18T03:05:58.704Z,91
2022-09-18T03:06:30.714Z,91
2022-09-18T03:06:53.582Z,91
2022-09-18T03:07:16.420Z,91
2022-09-18T03:07:52.327Z,91
2022-09-18T03:08:22.677Z,91
2022-09-18T03:08:55.180Z,91
2022-09-18T03:09:27.170Z,91
2022-09-18T03:09:59.315Z,91
2022-09-18T03:10:31.267Z,91
2022-09-18T03:10:54.113Z,91
2022-09-18T03:11:17.267Z,91
2022-09-18T03:11:50.715Z,91
2022-09-18T03:12:23.344Z,91
2022-09-18T03:12:54.659Z,91
2022-09-18T03:13:25.323Z,91
2022-09-18T03:13:59.012Z,91
2022-09-18T03:14:31.306Z,91
2022-09-18T03:14:53.983Z,91
2022-09-18T03:15:17.913Z,91
2022-09-18T03:15:50.753Z,91
2022-09-18T03:16:22.693Z,91
2022-09-18T03:16:54.682Z,91
2022-09-18T03:17:24.580Z,91
2022-09-18T03:17:58.716Z,91
2022-09-18T03:18:30.610Z,91
2022-09-18T03:18:53.546Z,91
2022-09-18T03:19:18.281Z,91
2022-09-18T03:19:50.876Z,91
2022-09-18T03:20:22.847Z,91
2022-09-18T03:20:54.663Z,91
2022-09-18T03:21:24.672Z,91
2022-09-18T03:21:58.620Z,91
2022-09-18T03:22:31.005Z,91
2022-09-18T03:22:53.810Z,91
2022-09-18T03:23:16.544Z,91
2022-09-18T03:23:51.147Z,91
2022-09-18T03:24:23.199Z,91
2022-09-18T03:24:55.219Z,91
2022-09-18T03:25:26.700Z,91
2022-09-18T03:25:59.192Z,91
2022-09-18T03:26:30.605Z,91
2022-09-18T03:26:53.250Z,91
2022-09-18T03:27:15.962Z,91
2022-09-18T03:27:50.533Z,91
2022-09-18T03:28:22.805Z,91
2022-09-18T03:28:54.958Z,91
2022-09-18T03:29:24.859Z,91
2022-09-18T03:29:58.735Z,91
2022-09-18T03:30:30.935Z,91
2022-09-18T03:30:53.709Z,91
2022-09-18T03:31:16.454Z,91
2022-09-18T03:31:50.763Z,91
2022-09-18T03:32:22.808Z,91
2022-09-18T03:32:54.756Z,91
2022-09-18T03:33:24.787Z,91
2022-09-18T03:33:58.540Z,91
2022-09-18T03:34:33.043Z,91
2022-09-18T03:34:55.925Z,91
2022-09-18T03:35:20.431Z,91
2022-09-18T03:35:50.785Z,91
2022-09-18T03:36:22.677Z,91
2022-09-18T03:36:54.640Z,91
2022-09-18T03:37:24.649Z,91
2022-09-18T03:37:59.208Z,91
2022-09-18T03:38:30.837Z,91
2022-09-18T03:38:53.678Z,91
2022-09-18T03:39:16.384Z,91
2022-09-18T03:39:51.907Z,91
2022-09-18T03:40:22.913Z,91
2022-09-18T03:40:54.896Z,91
2022-09-18T03:41:24.398Z,91
2022-09-18T03:41:58.696Z,91
2022-09-18T03:42:30.453Z,91
2022-09-18T03:42:53.144Z,91
2022-09-18T03:43:15.574Z,91
2022-09-18T03:43:50.801Z,91
2022-09-18T03:44:23.209Z,91
2022-09-18T03:44:55.127Z,91
2022-09-18T03:45:25.355Z,91
2022-09-18T03:45:58.452Z,91
2022-09-18T03:46:30.814Z,91
2022-09-18T03:46:53.514Z,91
2022-09-18T03:47:15.905Z,91
2022-09-18T03:47:50.781Z,91
2022-09-18T03:48:22.545Z,91
2022-09-18T03:48:55.053Z,91
2022-09-18T03:49:26.824Z,91
2022-09-18T03:49:58.691Z,91
2022-09-18T03:50:30.514Z,91
2022-09-18T03:50:53.304Z,91
2022-09-18T03:51:16.400Z,91
2022-09-18T03:51:51.198Z,91
2022-09-18T03:52:23.202Z,91
2022-09-18T03:52:54.660Z,91
2022-09-18T03:53:25.507Z,91
2022-09-18T03:53:58.778Z,91
2022-09-18T03:54:31.032Z,91
2022-09-18T03:54:53.689Z,91
2022-09-18T03:55:16.248Z,91
2022-09-18T03:55:51.070Z,92
2022-09-18T03:56:23.629Z,92
2022-09-18T03:56:54.616Z,92
2022-09-18T03:57:24.425Z,92
2022-09-18T03:57:58.906Z,92
2022-09-18T03:58:30.496Z,92
2022-09-18T03:58:53.386Z,92
2022-09-18T03:59:16.382Z,92
2022-09-18T03:59:51.185Z,92
2022-09-18T04:00:24.596Z,92
2022-09-18T04:00:54.520Z,93
2022-09-18T04:01:25.553Z,93
2022-09-18T04:02:01.186Z,93
2022-09-18T04:02:31.223Z,93
2022-09-18T04:02:53.910Z,93
2022-09-18T04:03:16.415Z,93
2022-09-18T04:03:51.817Z,93
2022-09-18T04:04:25.367Z,93
2022-09-18T04:04:57.801Z,93
2022-09-18T04:05:27.023Z,93
2022-09-18T04:05:58.836Z,93
2022-09-18T04:06:30.574Z,93
2022-09-18T04:06:53.600Z,93
2022-09-18T04:07:17.020Z,93
2022-09-18T04:09:05.578Z,93
2022-09-18T04:09:10.469Z,93
2022-09-18T04:09:42.623Z,93
2022-09-18T04:10:05.752Z,93
2022-09-18T04:10:28.259Z,94
2022-09-18T04:10:50.998Z,94
2022-09-18T04:11:13.438Z,94
2022-09-18T04:11:50.830Z,94
2022-09-18T04:12:23.164Z,94
2022-09-18T04:12:54.708Z,94
2022-09-18T04:13:24.337Z,94
2022-09-18T04:13:58.564Z,94
2022-09-18T04:14:30.539Z,94
2022-09-18T04:14:53.380Z,94
2022-09-18T04:15:15.882Z,94
2022-09-18T04:15:51.030Z,94
2022-09-18T04:16:23.021Z,94
2022-09-18T04:16:54.554Z,94
2022-09-18T04:17:24.436Z,94
2022-09-18T04:17:58.713Z,94
2022-09-18T04:18:30.712Z,94
2022-09-18T04:18:53.495Z,94
2022-09-18T04:19:15.789Z,94
2022-09-18T04:19:53.547Z,94
2022-09-18T04:20:22.621Z,94
2022-09-18T04:20:54.686Z,94
2022-09-18T04:21:24.516Z,94
2022-09-18T04:21:58.656Z,94
2022-09-18T04:22:30.725Z,94
2022-09-18T04:22:53.384Z,94
2022-09-18T04:23:15.691Z,94
2022-09-18T04:23:50.873Z,94
2022-09-18T04:24:22.550Z,94
2022-09-18T04:24:54.652Z,94
2022-09-18T04:25:26.599Z,94
2022-09-18T04:25:58.761Z,94
2022-09-18T04:26:30.509Z,94
2022-09-18T04:26:53.621Z,94
2022-09-18T04:27:15.883Z,94
2022-09-18T04:27:50.684Z,94
2022-09-18T04:28:22.498Z,94
2022-09-18T04:28:54.919Z,94
2022-09-18T04:29:24.424Z,94
2022-09-18T04:29:58.692Z,94
2022-09-18T04:30:30.544Z,94
2022-09-18T04:30:53.301Z,94
2022-09-18T04:31:15.629Z,94
2022-09-18T04:31:50.898Z,94
2022-09-18T04:32:22.706Z,94
2022-09-18T04:32:54.563Z,94
2022-09-18T04:33:24.415Z,94
2022-09-18T04:33:58.793Z,94
2022-09-18T04:34:30.902Z,94
2022-09-18T04:34:55.210Z,94
2022-09-18T04:35:17.434Z,94
2022-09-18T04:35:50.690Z,94
2022-09-18T04:36:22.771Z,94
2022-09-18T04:36:54.508Z,94
2022-09-18T04:37:24.357Z,94
2022-09-18T04:37:58.625Z,94
2022-09-18T04:38:30.663Z,94
2022-09-18T04:38:53.995Z,94
2022-09-18T04:39:16.352Z,94
2022-09-18T04:39:51.220Z,94
2022-09-18T04:40:22.831Z,94
2022-09-18T04:40:54.649Z,94
2022-09-18T04:41:24.392Z,94
2022-09-18T04:41:59.064Z,94
2022-09-18T04:42:30.594Z,94
2022-09-18T04:42:53.338Z,94
2022-09-18T04:43:15.628Z,94
2022-09-18T04:43:50.666Z,94
2022-09-18T04:44:22.619Z,94
2022-09-18T04:44:54.600Z,94
2022-09-18T04:45:24.528Z,94
2022-09-18T04:45:58.795Z,94
2022-09-18T04:46:30.899Z,94
2022-09-18T04:46:53.979Z,94
2022-09-18T04:47:16.227Z,94
2022-09-18T04:47:50.559Z,94
2022-09-18T04:48:22.644Z,94
2022-09-18T04:48:54.658Z,94
2022-09-18T04:49:26.734Z,94
2022-09-18T04:49:58.605Z,94
2022-09-18T04:50:30.528Z,94
2022-09-18T04:50:53.304Z,94
2022-09-18T04:51:15.713Z,94
2022-09-18T04:51:50.507Z,94
2022-09-18T04:52:22.943Z,94
2022-09-18T04:52:54.652Z,94
2022-09-18T04:53:24.358Z,94
2022-09-18T04:53:58.503Z,94
2022-09-18T04:54:31.078Z,94
2022-09-18T04:54:53.735Z,94
2022-09-18T04:55:16.027Z,94
2022-09-18T04:55:50.681Z,94
2022-09-18T04:56:22.523Z,94
2022-09-18T04:56:54.631Z,94
2022-09-18T04:57:24.585Z,94
2022-09-18T04:57:58.824Z,94
2022-09-18T04:58:30.639Z,94
2022-09-18T04:58:53.709Z,94
2022-09-18T04:59:16.091Z,94
2022-09-18T04:59:50.744Z,94
2022-09-18T05:00:22.642Z,94
2022-09-18T05:00:54.705Z,94
2022-09-18T05:01:24.575Z,94
2022-09-18T05:01:59.258Z,94
2022-09-18T05:02:30.700Z,94
2022-09-18T05:02:54.375Z,94
2022-09-18T05:03:16.450Z,94
2022-09-18T05:03:50.830Z,94
2022-09-18T05:04:28.102Z,94
2022-09-18T05:04:54.777Z,94
2022-09-18T05:05:24.522Z,94
2022-09-18T05:05:58.702Z,94
2022-09-18T05:06:30.712Z,94
2022-09-18T05:06:53.648Z,94
2022-09-18T05:07:15.879Z,94
2022-09-18T05:07:50.814Z,94
2022-09-18T05:08:22.964Z,94
2022-09-18T05:08:54.720Z,94
2022-09-18T05:09:24.803Z,94
2022-09-18T05:09:58.545Z,94
2022-09-18T05:10:30.811Z,94
2022-09-18T05:10:54.082Z,94
2022-09-18T05:11:16.583Z,94
2022-09-18T05:11:50.592Z,94
2022-09-18T05:12:22.722Z,94
2022-09-18T05:12:54.686Z,94
2022-09-18T05:13:24.604Z,94
2022-09-18T05:13:58.758Z,94
2022-09-18T05:14:30.628Z,94
2022-09-18T05:14:53.509Z,94
2022-09-18T05:15:16.159Z,94
2022-09-18T05:15:51.070Z,94
2022-09-18T05:16:22.734Z,94
2022-09-18T05:16:54.740Z,94
2022-09-18T05:17:24.853Z,94
2022-09-18T05:17:58.694Z,94
2022-09-18T05:18:30.673Z,94
2022-09-18T05:18:53.775Z,94
2022-09-18T05:19:16.100Z,94
2022-09-18T05:19:50.634Z,94
2022-09-18T05:20:22.988Z,94
2022-09-18T05:20:54.683Z,94
2022-09-18T05:21:24.532Z,94
2022-09-18T05:21:58.591Z,94
2022-09-18T05:22:30.596Z,94
2022-09-18T05:22:54.507Z,94
2022-09-18T05:23:16.985Z,94
2022-09-18T05:23:50.518Z,94
2022-09-18T05:24:22.691Z,93
2022-09-18T05:24:54.698Z,93
2022-09-18T05:25:24.488Z,93
2022-09-18T05:25:58.645Z,93
2022-09-18T05:26:30.693Z,93
2022-09-18T05:26:54.058Z,93
2022-09-18T05:27:16.363Z,93
2022-09-18T05:27:50.687Z,93
2022-09-18T05:28:23.304Z,93
2022-09-18T05:28:54.880Z,93
2022-09-18T05:29:24.653Z,93
2022-09-18T05:29:58.558Z,93
2022-09-18T05:30:30.718Z,93
2022-09-18T05:30:53.721Z,93
2022-09-18T05:31:16.376Z,93
2022-09-18T05:31:50.856Z,93
2022-09-18T05:32:22.500Z,93
2022-09-18T05:32:58.748Z,93
2022-09-18T05:33:24.653Z,93
2022-09-18T05:33:58.505Z,93
2022-09-18T05:34:30.808Z,93
2022-09-18T05:34:56.937Z,93
2022-09-18T05:35:34.867Z,93
2022-09-18T05:35:57.134Z,93
2022-09-18T05:36:19.360Z,93
2022-09-18T05:36:54.654Z,93
2022-09-18T05:37:24.846Z,93
2022-09-18T05:37:58.844Z,93
2022-09-18T05:38:30.713Z,93
2022-09-18T05:38:54.249Z,93
2022-09-18T05:39:17.943Z,93
2022-09-18T05:39:50.703Z,93
2022-09-18T05:40:40.045Z,93
2022-09-18T05:41:02.885Z,93
2022-09-18T05:41:25.238Z,93
2022-09-18T05:41:59.169Z,93
2022-09-18T05:42:31.931Z,93
2022-09-18T05:42:54.474Z,93
2022-09-18T05:43:18.293Z,93
2022-09-18T05:43:50.980Z,93
2022-09-18T05:44:23.050Z,93
2022-09-18T05:44:57.568Z,93
2022-09-18T05:45:24.543Z,93
2022-09-18T05:46:01.050Z,93
2022-09-18T05:46:31.014Z,93
2022-09-18T05:46:53.691Z,93
2022-09-18T05:47:18.010Z,93
2022-09-18T05:47:51.137Z,93
2022-09-18T05:48:23.147Z,93
2022-09-18T05:48:54.575Z,93
2022-09-18T05:49:25.033Z,93
2022-09-18T05:49:59.140Z,93
2022-09-18T05:50:30.901Z,93
2022-09-18T05:50:53.759Z,93
2022-09-18T05:51:18.466Z,93
2022-09-18T05:51:50.626Z,93
2022-09-18T05:52:23.388Z,93
2022-09-18T05:52:54.652Z,93
2022-09-18T05:53:25.853Z,93
2022-09-18T05:53:58.502Z,93
2022-09-18T05:54:31.169Z,93
2022-09-18T05:54:53.746Z,93
2022-09-18T05:55:18.907Z,93
2022-09-18T05:55:50.568Z,93
2022-09-18T05:56:22.913Z,93
2022-09-18T05:56:54.627Z,93
2022-09-18T05:57:24.421Z,93
2022-09-18T05:57:59.382Z,93
2022-09-18T05:58:30.619Z,93
2022-09-18T05:58:53.308Z,93
2022-09-18T05:59:20.590Z,93
2022-09-18T05:59:50.811Z,93
2022-09-18T06:00:25.393Z,93
2022-09-18T06:00:54.535Z,93
2022-09-18T06:01:25.283Z,93
2022-09-18T06:02:06.142Z,93
2022-09-18T06:02:28.445Z,93
2022-09-18T06:02:51.679Z,93
2022-09-18T06:03:14.021Z,93
2022-09-18T06:03:50.795Z,93
2022-09-18T06:04:28.124Z,93
2022-09-18T06:04:54.459Z,93
2022-09-18T06:05:26.704Z,93
2022-09-18T06:05:58.411Z,93
2022-09-18T06:06:30.540Z,93
2022-09-18T06:06:53.434Z,93
2022-09-18T06:07:15.808Z,93
2022-09-18T06:07:50.615Z,93
2022-09-18T06:08:22.690Z,93
2022-09-18T06:08:54.497Z,93
2022-09-18T06:09:24.590Z,93
2022-09-18T06:09:58.491Z,93
2022-09-18T06:10:30.530Z,93
2022-09-18T06:10:53.360Z,93
2022-09-18T06:11:17.240Z,93
2022-09-18T06:11:50.501Z,93
2022-09-18T06:12:22.732Z,93
2022-09-18T06:12:54.688Z,93
2022-09-18T06:13:26.595Z,93
2022-09-18T06:13:58.781Z,93
2022-09-18T06:14:32.931Z,93
2022-09-18T06:14:53.777Z,93
2022-09-18T06:15:16.193Z,93
2022-09-18T06:15:50.572Z,93
2022-09-18T06:16:22.641Z,93
2022-09-18T06:16:54.617Z,93
2022-09-18T06:17:24.619Z,93
2022-09-18T06:17:58.625Z,93
2022-09-18T06:18:30.539Z,93
2022-09-18T06:18:53.227Z,93
2022-09-18T06:19:15.532Z,93
2022-09-18T06:19:50.533Z,93
2022-09-18T06:20:22.693Z,93
2022-09-18T06:20:54.415Z,93
2022-09-18T06:21:24.398Z,93
2022-09-18T06:21:58.352Z,93
2022-09-18T06:22:30.397Z,93
2022-09-18T06:22:55.051Z,93
2022-09-18T06:23:17.446Z,93
2022-09-18T06:23:50.718Z,93
2022-09-18T06:24:23.009Z,93
2022-09-18T06:24:54.499Z,93
2022-09-18T06:25:24.479Z,93
2022-09-18T06:25:58.354Z,93
2022-09-18T06:26:30.615Z,93
2022-09-18T06:26:54.175Z,93
2022-09-18T06:27:16.520Z,93
2022-09-18T06:27:50.553Z,93
2022-09-18T06:28:23.835Z,93
2022-09-18T06:28:54.835Z,93
2022-09-18T06:29:24.557Z,93
2022-09-18T06:29:58.394Z,93
2022-09-18T06:30:30.634Z,93
2022-09-18T06:30:53.347Z,93
2022-09-18T06:31:15.652Z,93
2022-09-18T06:31:50.667Z,93
2022-09-18T06:32:24.280Z,93
2022-09-18T06:32:54.590Z,93
2022-09-18T06:33:24.433Z,93
2022-09-18T06:33:58.380Z,93
2022-09-18T06:34:30.629Z,93
2022-09-18T06:34:58.090Z,93
2022-09-18T06:35:35.149Z,93
2022-09-18T06:35:57.492Z,93
2022-09-18T06:36:19.909Z,93
2022-09-18T06:36:54.389Z,93
2022-09-18T06:37:25.215Z,93
2022-09-18T06:38:01.092Z,93
2022-09-18T06:38:30.866Z,93
2022-09-18T06:38:53.298Z,93
2022-09-18T06:39:15.777Z,93
2022-09-18T06:39:50.674Z,93
2022-09-18T06:40:25.885Z,93
2022-09-18T06:40:55.154Z,93
2022-09-18T06:41:25.751Z,93
2022-09-18T06:41:58.714Z,93
2022-09-18T06:42:30.488Z,93
2022-09-18T06:42:53.402Z,93
2022-09-18T06:43:15.910Z,93
2022-09-18T06:43:50.494Z,93
2022-09-18T06:44:22.489Z,93
2022-09-18T06:44:54.485Z,93
2022-09-18T06:45:26.433Z,93
2022-09-18T06:45:58.652Z,93
2022-09-18T06:46:30.678Z,93
2022-09-18T06:46:53.276Z,93
2022-09-18T06:47:15.766Z,93
2022-09-18T06:47:50.747Z,93
2022-09-18T06:48:23.303Z,93
2022-09-18T06:48:55.192Z,93
2022-09-18T06:49:27.445Z,93
2022-09-18T06:49:59.164Z,93
2022-09-18T06:50:31.950Z,93
2022-09-18T06:50:53.203Z,93
2022-09-18T06:51:15.887Z,93
2022-09-18T06:51:51.073Z,93
2022-09-18T06:52:22.948Z,93
2022-09-18T06:52:54.982Z,92
2022-09-18T06:53:24.859Z,92
2022-09-18T06:53:58.569Z,92
2022-09-18T06:54:30.780Z,92
2022-09-18T06:54:53.407Z,92
2022-09-18T06:55:15.760Z,92
2022-09-18T06:55:50.702Z,92
2022-09-18T06:56:23.081Z,92
2022-09-18T06:56:54.791Z,92
2022-09-18T06:57:24.436Z,92
2022-09-18T06:57:59.461Z,92
2022-09-18T06:58:30.738Z,92
2022-09-18T06:58:53.445Z,92
2022-09-18T06:59:16.354Z,92
2022-09-18T06:59:50.966Z,92
2022-09-18T07:00:25.583Z,92
2022-09-18T07:00:54.520Z,92
2022-09-18T07:01:25.861Z,92
2022-09-18T07:02:03.671Z,92
2022-09-18T07:02:25.860Z,92
2022-09-18T07:02:56.031Z,92
2022-09-18T07:03:24.144Z,92
2022-09-18T07:03:50.717Z,92
2022-09-18T07:04:28.163Z,92
2022-09-18T07:04:58.760Z,92
2022-09-18T07:05:21.266Z,92
2022-09-18T07:05:58.753Z,92
2022-09-18T07:06:30.393Z,92
2022-09-18T07:06:53.298Z,92
2022-09-18T07:07:15.474Z,92
2022-09-18T07:07:50.844Z,92
2022-09-18T07:08:22.541Z,92
2022-09-18T07:08:54.482Z,92